Time;durP1;ratioP1;P1;durP2;ratioP2;P2;SDS_P1;SDS_P2;PMS_P1;PMS_P2;Temp;Humidity;BMP_temperature;BMP_pressure;BME280_temperature;BME280_humidity;BME280_pressure;Samples;Min_cycle;Max_cycle;Signal;HPM_P1;HPM_P2
2024/02/16 00:01:53;;;;;;;7.97;3.57;;;;;;;;;;5112071;28;19919;-56
2024/02/16 00:04:19;;;;;;;6.97;3.60;;;;;;;;;;5122444;28;20066;-57
2024/02/16 00:06:44;;;;;;;7.38;3.20;;;;;;;;;;5108701;28;20273;-58
2024/02/16 00:09:10;;;;;;;9.47;3.77;;;;;;;;;;5109631;28;20032;-59
2024/02/16 00:11:36;;;;;;;6.37;3.30;;;;;;;;;;5111482;28;20036;-59
2024/02/16 00:14:02;;;;;;;9.65;3.83;;;;;;;;;;5113481;28;20032;-59
2024/02/16 00:16:27;;;;;;;12.15;4.13;;;;;;;;;;5112605;28;20035;-59
2024/02/16 00:18:53;;;;;;;8.70;3.63;;;;;;;;;;5111660;28;20028;-61
2024/02/16 00:21:19;;;;;;;7.78;3.60;;;;;;;;;;5111211;28;20100;-59
2024/02/16 00:23:45;;;;;;;6.00;3.33;;;;;;;;;;5109560;28;20054;-59
2024/02/16 00:26:10;;;;;;;6.93;3.63;;;;;;;;;;5108341;28;20028;-59
2024/02/16 00:28:36;;;;;;;10.93;3.72;;;;;;;;;;5109571;28;20039;-60
2024/02/16 00:31:02;;;;;;;7.50;3.80;;;;;;;;;;5109847;28;20040;-60
2024/02/16 00:33:29;;;;;;;7.47;3.47;;;;;;;;;;5110437;28;20035;-58
2024/02/16 00:35:54;;;;;;;9.67;4.23;;;;;;;;;;5109474;28;20276;-59
2024/02/16 00:38:20;;;;;;;11.53;3.87;;;;;;;;;;5109866;28;20287;-57
2024/02/16 00:40:45;;;;;;;7.13;3.60;;;;;;;;;;5111042;28;20032;-55
2024/02/16 00:43:11;;;;;;;9.07;4.00;;;;;;;;;;5112435;28;20029;-59
2024/02/16 00:45:36;;;;;;;13.55;5.32;;;;;;;;;;5114421;28;20053;-58
2024/02/16 00:48:03;;;;;;;6.17;3.40;;;;;;;;;;5111612;28;20092;-58
2024/02/16 00:50:29;;;;;;;10.70;3.90;;;;;;;;;;5110689;28;20272;-57
2024/02/16 00:52:54;;;;;;;11.83;4.53;;;;;;;;;;5112473;28;20303;-57
2024/02/16 00:55:20;;;;;;;9.33;3.73;;;;;;;;;;5114737;28;20047;-56
2024/02/16 00:57:45;;;;;;;7.18;3.97;;;;;;;;;;5113679;28;20024;-57
2024/02/16 01:00:11;;;;;;;10.13;4.40;;;;;;;;;;5114172;28;20016;-59
2024/02/16 01:02:36;;;;;;;8.93;3.42;;;;;;;;;;5113773;28;20567;-58
2024/02/16 01:05:02;;;;;;;14.10;4.15;;;;;;;;;;5114562;28;20133;-57
2024/02/16 01:07:28;;;;;;;8.63;3.67;;;;;;;;;;5111676;28;20031;-58
2024/02/16 01:09:54;;;;;;;8.68;3.83;;;;;;;;;;5113125;28;20032;-58
2024/02/16 01:12:20;;;;;;;11.07;3.95;;;;;;;;;;5112650;28;20038;-56
2024/02/16 01:14:45;;;;;;;7.23;3.37;;;;;;;;;;5112113;28;20040;-58
2024/02/16 01:17:10;;;;;;;10.80;3.90;;;;;;;;;;5114165;28;20356;-58
2024/02/16 01:19:36;;;;;;;7.60;3.90;;;;;;;;;;5113160;28;20020;-58
2024/02/16 01:22:01;;;;;;;7.23;3.70;;;;;;;;;;5095434;28;20032;-58
2024/02/16 01:24:27;;;;;;;7.82;4.20;;;;;;;;;;5115048;28;20035;-63
2024/02/16 01:26:52;;;;;;;10.07;4.30;;;;;;;;;;5110419;28;20139;-58
2024/02/16 01:29:18;;;;;;;6.37;3.60;;;;;;;;;;5110908;28;20283;-58
2024/02/16 01:31:43;;;;;;;8.25;4.28;;;;;;;;;;5109209;28;20264;-59
2024/02/16 01:34:08;;;;;;;9.90;4.27;;;;;;;;;;5111186;28;20040;-60
2024/02/16 01:36:36;;;;;;;9.10;3.80;;;;;;;;;;5110690;28;20121;-57
2024/02/16 01:39:01;;;;;;;8.50;4.40;;;;;;;;;;5110303;28;20041;-59
2024/02/16 01:41:26;;;;;;;9.93;3.83;;;;;;;;;;5108407;28;20261;-58
2024/02/16 01:43:53;;;;;;;14.57;4.40;;;;;;;;;;5109767;28;20028;-59
2024/02/16 01:46:18;;;;;;;13.88;5.28;;;;;;;;;;5113337;28;20028;-59
2024/02/16 01:48:43;;;;;;;7.90;4.33;;;;;;;;;;5110170;28;20034;-60
2024/02/16 01:51:09;;;;;;;11.48;5.13;;;;;;;;;;5119536;28;20024;-60
2024/02/16 01:53:36;;;;;;;11.07;4.10;;;;;;;;;;5107234;28;20047;-59
2024/02/16 01:56:02;;;;;;;7.07;3.90;;;;;;;;;;5108952;28;20032;-56
2024/02/16 01:58:28;;;;;;;16.85;4.53;;;;;;;;;;5110271;28;20267;-57
2024/02/16 02:00:54;;;;;;;8.82;3.80;;;;;;;;;;5122228;28;20039;-59
2024/02/16 02:03:20;;;;;;;10.20;4.03;;;;;;;;;;5104608;28;20024;-59
2024/02/16 02:05:46;;;;;;;7.82;4.10;;;;;;;;;;5108307;28;20036;-57
2024/02/16 02:08:11;;;;;;;7.45;4.47;;;;;;;;;;5100729;28;20107;-59
2024/02/16 02:10:38;;;;;;;7.65;3.97;;;;;;;;;;5110873;28;20036;-59
2024/02/16 02:13:03;;;;;;;;;;;;;;;;;;5116174;28;20063;-58
2024/02/16 02:15:29;;;;;;;11.80;3.63;;;;;;;;;;5124754;28;19911;-57
2024/02/16 02:17:54;;;;;;;10.68;3.75;;;;;;;;;;5106506;28;20028;-59
2024/02/16 02:20:20;;;;;;;7.43;3.63;;;;;;;;;;5111893;28;20043;-54
2024/02/16 02:22:45;;;;;;;6.50;3.00;;;;;;;;;;5106349;28;20264;-59
2024/02/16 02:25:10;;;;;;;9.17;3.43;;;;;;;;;;5120338;28;20497;-58
2024/02/16 02:27:36;;;;;;;6.23;3.47;;;;;;;;;;5116101;28;20140;-61
2024/02/16 02:30:02;;;;;;;10.07;4.18;;;;;;;;;;5128075;28;20032;-59
2024/02/16 02:32:28;;;;;;;9.17;4.30;;;;;;;;;;5108522;28;20035;-58
2024/02/16 02:34:54;;;;;;;8.70;3.47;;;;;;;;;;5112253;28;20331;-59
2024/02/16 02:37:19;;;;;;;12.03;3.53;;;;;;;;;;5108202;28;20139;-58
2024/02/16 02:39:45;;;;;;;10.15;3.65;;;;;;;;;;5109146;28;20032;-59
2024/02/16 02:42:10;;;;;;;5.37;3.17;;;;;;;;;;5108649;28;20052;-57
2024/02/16 02:44:36;;;;;;;11.80;4.13;;;;;;;;;;5109573;28;20050;-58
2024/02/16 02:47:01;;;;;;;6.03;3.70;;;;;;;;;;5128709;28;20046;-58
2024/02/16 02:49:27;;;;;;;6.28;3.35;;;;;;;;;;5115501;28;20052;-58
2024/02/16 02:51:52;;;;;;;9.27;4.03;;;;;;;;;;5114098;28;20387;-58
2024/02/16 02:54:18;;;;;;;11.02;3.60;;;;;;;;;;5115056;28;20104;-59
2024/02/16 02:56:43;;;;;;;9.02;4.18;;;;;;;;;;5116521;28;20032;-58
2024/02/16 02:59:10;;;;;;;9.17;3.63;;;;;;;;;;5115250;28;20058;-59
2024/02/16 03:01:35;;;;;;;;;;;;;;;;;;5114475;28;20261;-57
2024/02/16 03:04:00;;;;;;;8.30;3.97;;;;;;;;;;5115194;28;19947;-59
2024/02/16 03:06:26;;;;;;;7.10;3.78;;;;;;;;;;5114922;28;20031;-58
2024/02/16 03:08:52;;;;;;;10.82;4.75;;;;;;;;;;5114560;28;20044;-58
2024/02/16 03:11:17;;;;;;;9.57;3.70;;;;;;;;;;5114664;28;20051;-59
2024/02/16 03:13:43;;;;;;;11.02;4.22;;;;;;;;;;5114175;28;20032;-57
2024/02/16 03:16:08;;;;;;;6.87;4.17;;;;;;;;;;5107737;28;20051;-59
2024/02/16 03:18:36;;;;;;;7.20;3.93;;;;;;;;;;5108461;28;20298;-61
2024/02/16 03:21:02;;;;;;;7.17;3.73;;;;;;;;;;5127680;28;20027;-59
2024/02/16 03:23:27;;;;;;;7.10;3.60;;;;;;;;;;5120067;28;20263;-57
2024/02/16 03:25:53;;;;;;;10.80;4.17;;;;;;;;;;5114379;28;20286;-58
2024/02/16 03:28:20;;;;;;;10.70;4.57;;;;;;;;;;5114840;28;20293;-58
2024/02/16 03:30:46;;;;;;;7.03;3.90;;;;;;;;;;5119995;28;20256;-59
2024/02/16 03:33:13;;;;;;;15.60;4.68;;;;;;;;;;5101726;28;20281;-59
2024/02/16 03:35:38;;;;;;;11.82;4.25;;;;;;;;;;5104707;28;20032;-59
2024/02/16 03:38:04;;;;;;;10.23;4.40;;;;;;;;;;5121496;28;20024;-58
2024/02/16 03:40:30;;;;;;;8.73;4.40;;;;;;;;;;5114714;28;20039;-58
2024/02/16 03:42:55;;;;;;;5.60;3.97;;;;;;;;;;5114362;28;20051;-57
2024/02/16 03:45:23;;;;;;;6.80;3.43;;;;;;;;;;5115568;28;20022;-56
2024/02/16 03:47:48;;;;;;;8.23;3.77;;;;;;;;;;5114578;28;20051;-59
2024/02/16 03:50:14;;;;;;;6.43;3.87;;;;;;;;;;5101429;28;20268;-59
2024/02/16 03:52:39;;;;;;;11.10;4.20;;;;;;;;;;5117619;28;20296;-60
2024/02/16 03:55:05;;;;;;;17.40;4.80;;;;;;;;;;5114407;28;20273;-60
2024/02/16 03:57:31;;;;;;;7.60;4.15;;;;;;;;;;5106039;28;20096;-59
2024/02/16 03:59:56;;;;;;;10.80;3.72;;;;;;;;;;5100800;28;20025;-58
2024/02/16 04:02:21;;;;;;;10.10;3.47;;;;;;;;;;5122414;28;20058;-56
2024/02/16 04:04:47;;;;;;;10.40;4.70;;;;;;;;;;5111627;28;20016;-59
2024/02/16 04:07:12;;;;;;;7.80;3.80;;;;;;;;;;5104768;28;20423;-58
2024/02/16 04:09:38;;;;;;;8.87;4.33;;;;;;;;;;5106924;28;20074;-60
2024/02/16 04:12:04;;;;;;;7.00;3.92;;;;;;;;;;5119606;28;20460;-60
2024/02/16 04:14:30;;;;;;;14.38;4.07;;;;;;;;;;5107038;28;20032;-58
2024/02/16 04:16:57;;;;;;;8.93;4.25;;;;;;;;;;5104491;28;20032;-58
2024/02/16 04:19:24;;;;;;;11.23;3.67;;;;;;;;;;5107317;28;20037;-57
2024/02/16 04:21:49;;;;;;;9.27;4.20;;;;;;;;;;5108389;28;20268;-59
2024/02/16 04:24:15;;;;;;;9.73;5.07;;;;;;;;;;5114621;28;20056;-59
2024/02/16 04:26:40;;;;;;;11.82;3.80;;;;;;;;;;5122770;28;20263;-57
2024/02/16 04:29:05;;;;;;;9.13;4.50;;;;;;;;;;5118456;28;20095;-58
2024/02/16 04:31:31;;;;;;;14.40;4.40;;;;;;;;;;5118168;28;20035;-56
2024/02/16 04:33:57;;;;;;;8.33;4.07;;;;;;;;;;5104650;28;20040;-58
2024/02/16 04:36:22;;;;;;;11.57;4.70;;;;;;;;;;5112780;28;20086;-59
2024/02/16 04:38:48;;;;;;;10.32;4.18;;;;;;;;;;5118287;28;20032;-58
2024/02/16 04:41:13;;;;;;;7.35;3.70;;;;;;;;;;5118025;28;20039;-58
2024/02/16 04:43:39;;;;;;;11.02;3.83;;;;;;;;;;5115711;28;20031;-56
2024/02/16 04:46:04;;;;;;;7.63;3.90;;;;;;;;;;5105373;28;20091;-58
2024/02/16 04:48:31;;;;;;;10.38;4.35;;;;;;;;;;5098435;28;20036;-59
2024/02/16 04:50:56;;;;;;;11.00;4.38;;;;;;;;;;5113465;28;20034;-58
2024/02/16 04:53:21;;;;;;;6.72;4.00;;;;;;;;;;5112464;28;20044;-58
2024/02/16 04:55:47;;;;;;;6.95;4.28;;;;;;;;;;5097758;28;20033;-59
2024/02/16 04:58:12;;;;;;;7.13;3.43;;;;;;;;;;5110462;28;20063;-59
2024/02/16 05:00:38;;;;;;;9.57;4.18;;;;;;;;;;5109896;28;20024;-58
2024/02/16 05:03:04;;;;;;;7.93;3.73;;;;;;;;;;5121253;28;20039;-60
2024/02/16 05:05:30;;;;;;;10.73;4.20;;;;;;;;;;5117896;28;20115;-57
2024/02/16 05:07:57;;;;;;;8.80;3.87;;;;;;;;;;5114349;28;20092;-57
2024/02/16 05:10:22;;;;;;;10.80;4.30;;;;;;;;;;5117540;28;20277;-60
2024/02/16 05:12:48;;;;;;;11.32;3.63;;;;;;;;;;5124062;28;20036;-57
2024/02/16 05:15:14;;;;;;;8.25;3.97;;;;;;;;;;5097981;28;20035;-58
2024/02/16 05:17:40;;;;;;;8.68;4.07;;;;;;;;;;5118327;28;20095;-57
2024/02/16 05:20:14;;;;;;;9.63;3.90;;;;;;;;;;5117192;28;20035;-57
2024/02/16 05:22:45;;;;;;;6.77;3.47;;;;;;;;;;5120599;28;20024;-58
2024/02/16 05:25:11;;;;;;;11.50;4.27;;;;;;;;;;5119560;28;20257;-56
2024/02/16 05:27:37;;;;;;;8.63;3.72;;;;;;;;;;5118178;28;20264;-58
2024/02/16 05:30:04;;;;;;;8.95;3.67;;;;;;;;;;5103000;28;20035;-59
2024/02/16 05:32:29;;;;;;;8.17;4.40;;;;;;;;;;5101329;28;20048;-56
2024/02/16 05:34:54;;;;;;;7.00;3.63;;;;;;;;;;5115947;28;20261;-57
2024/02/16 05:37:22;;;;;;;11.07;3.95;;;;;;;;;;5121084;28;20031;-58
2024/02/16 05:39:56;;;;;;;6.10;3.47;;;;;;;;;;5109358;28;20037;-57
2024/02/16 05:42:22;;;;;;;6.13;3.50;;;;;;;;;;5113328;28;20344;-58
2024/02/16 05:44:47;;;;;;;10.20;4.00;;;;;;;;;;5117681;28;20272;-59
2024/02/16 05:47:13;;;;;;;8.55;3.53;;;;;;;;;;5118339;28;20036;-59
2024/02/16 05:49:39;;;;;;;6.35;3.35;;;;;;;;;;5119930;28;20043;-60
2024/02/16 05:52:17;;;;;;;7.60;3.70;;;;;;;;;;5104931;28;20056;-58
2024/02/16 05:54:43;;;;;;;9.90;4.20;;;;;;;;;;5114709;28;20032;-59
2024/02/16 05:57:09;;;;;;;8.73;3.93;;;;;;;;;;5106401;28;20276;-60
2024/02/16 05:59:35;;;;;;;7.37;3.73;;;;;;;;;;5117070;28;20283;-59
2024/02/16 06:02:00;;;;;;;7.27;3.63;;;;;;;;;;5107406;28;20036;-59
2024/02/16 06:04:26;;;;;;;7.47;3.80;;;;;;;;;;5116203;28;20024;-58
2024/02/16 06:06:53;;;;;;;7.45;3.83;;;;;;;;;;5109497;28;20029;-59
2024/02/16 06:09:19;;;;;;;7.87;4.20;;;;;;;;;;5106549;28;20023;-59
2024/02/16 06:11:45;;;;;;;8.10;3.87;;;;;;;;;;5114648;28;20299;-59
2024/02/16 06:14:11;;;;;;;11.00;3.40;;;;;;;;;;5113718;28;20061;-60
2024/02/16 06:16:36;;;;;;;8.32;3.67;;;;;;;;;;5106478;28;20071;-60
2024/02/16 06:19:02;;;;;;;8.27;3.70;;;;;;;;;;5120693;28;20087;-59
2024/02/16 06:21:27;;;;;;;11.15;3.83;;;;;;;;;;5102072;28;20032;-59
2024/02/16 06:23:53;;;;;;;9.10;4.15;;;;;;;;;;5115828;28;20038;-60
2024/02/16 06:26:20;;;;;;;7.30;3.83;;;;;;;;;;5115828;28;20039;-59
2024/02/16 06:28:45;;;;;;;7.47;4.00;;;;;;;;;;5124084;28;20035;-58
2024/02/16 06:31:10;;;;;;;8.77;4.43;;;;;;;;;;5115980;28;20265;-59
2024/02/16 06:33:36;;;;;;;7.95;4.03;;;;;;;;;;5114409;28;20095;-59
2024/02/16 06:36:02;;;;;;;9.13;3.58;;;;;;;;;;5115800;28;20044;-61
2024/02/16 06:38:28;;;;;;;6.93;3.50;;;;;;;;;;5118344;28;20031;-59
2024/02/16 06:40:53;;;;;;;7.95;3.88;;;;;;;;;;5105653;28;20054;-59
2024/02/16 06:43:20;;;;;;;5.03;3.40;;;;;;;;;;5104250;28;20104;-56
2024/02/16 06:45:45;;;;;;;10.55;3.97;;;;;;;;;;5115181;28;20041;-57
2024/02/16 06:48:11;;;;;;;9.40;4.03;;;;;;;;;;5113731;28;20055;-57
2024/02/16 06:50:36;;;;;;;12.80;4.00;;;;;;;;;;5103477;28;20035;-58
2024/02/16 06:53:02;;;;;;;11.63;3.20;;;;;;;;;;5113686;28;20044;-58
2024/02/16 06:55:27;;;;;;;7.07;3.85;;;;;;;;;;5110672;28;20062;-57
2024/02/16 06:57:53;;;;;;;5.03;3.20;;;;;;;;;;5117892;28;20034;-56
2024/02/16 07:00:19;;;;;;;7.55;3.25;;;;;;;;;;5115376;28;20551;-58
2024/02/16 07:02:45;;;;;;;9.10;3.63;;;;;;;;;;5114911;28;20034;-58
2024/02/16 07:05:11;;;;;;;7.03;3.63;;;;;;;;;;5115122;28;20264;-57
2024/02/16 07:07:36;;;;;;;8.18;3.42;;;;;;;;;;5114487;28;20024;-58
2024/02/16 07:10:02;;;;;;;7.53;3.30;;;;;;;;;;5125599;28;20048;-59
2024/02/16 07:12:27;;;;;;;5.88;3.33;;;;;;;;;;5115276;28;20031;-59
2024/02/16 07:14:53;;;;;;;6.63;3.00;;;;;;;;;;5125010;28;20028;-58
2024/02/16 07:17:19;;;;;;;8.65;3.63;;;;;;;;;;5114883;28;20043;-59
2024/02/16 07:19:45;;;;;;;12.07;4.65;;;;;;;;;;5117118;28;20076;-59
2024/02/16 07:22:12;;;;;;;9.20;4.33;;;;;;;;;;5115040;28;20024;-60
2024/02/16 07:24:38;;;;;;;9.23;3.50;;;;;;;;;;5119714;28;20023;-59
2024/02/16 07:27:03;;;;;;;6.72;3.58;;;;;;;;;;5119240;28;20260;-58
2024/02/16 07:29:29;;;;;;;8.27;3.45;;;;;;;;;;5117517;28;20052;-60
2024/02/16 07:31:56;;;;;;;7.68;3.25;;;;;;;;;;5114910;28;20079;-59
2024/02/16 07:34:21;;;;;;;7.10;3.50;;;;;;;;;;5114567;28;20058;-58
2024/02/16 07:36:47;;;;;;;11.30;4.13;;;;;;;;;;5114598;28;20024;-60
2024/02/16 07:39:12;;;;;;;9.45;4.30;;;;;;;;;;5123005;28;20103;-60
2024/02/16 07:41:38;;;;;;;10.20;3.50;;;;;;;;;;5118170;28;20028;-61
2024/02/16 07:44:04;;;;;;;10.85;3.95;;;;;;;;;;5123919;28;20028;-61
2024/02/16 07:46:30;;;;;;;7.57;4.05;;;;;;;;;;5117820;28;20024;-59
2024/02/16 07:48:55;;;;;;;17.48;3.47;;;;;;;;;;5119203;28;20035;-60
2024/02/16 07:51:21;;;;;;;7.90;4.28;;;;;;;;;;5118091;28;20044;-59
2024/02/16 07:53:47;;;;;;;6.72;3.42;;;;;;;;;;5118678;28;20036;-62
2024/02/16 07:56:12;;;;;;;5.97;2.97;;;;;;;;;;5129691;28;20043;-59
2024/02/16 07:58:41;;;;;;;6.20;3.30;;;;;;;;;;5115059;28;20257;-60
2024/02/16 08:01:07;;;;;;;11.43;3.87;;;;;;;;;;5118812;28;20028;-58
2024/02/16 08:03:33;;;;;;;7.82;3.83;;;;;;;;;;5118576;28;20249;-59
2024/02/16 08:05:59;;;;;;;10.02;3.40;;;;;;;;;;5117590;28;20032;-59
2024/02/16 08:08:24;;;;;;;7.90;3.20;;;;;;;;;;5120506;28;20100;-61
2024/02/16 08:10:50;;;;;;;6.13;3.00;;;;;;;;;;5120957;28;20282;-59
2024/02/16 08:13:16;;;;;;;10.48;3.47;;;;;;;;;;5118680;28;20035;-59
2024/02/16 08:15:42;;;;;;;8.80;3.70;;;;;;;;;;5119373;28;20034;-58
2024/02/16 08:18:08;;;;;;;7.90;4.78;;;;;;;;;;5118390;28;20053;-61
2024/02/16 08:20:33;;;;;;;7.85;3.80;;;;;;;;;;5129423;28;20024;-61
2024/02/16 08:22:59;;;;;;;11.13;4.10;;;;;;;;;;5118707;28;20028;-59
2024/02/16 08:25:24;;;;;;;10.52;4.07;;;;;;;;;;5118867;28;20770;-59
2024/02/16 08:27:50;;;;;;;9.60;3.85;;;;;;;;;;5118154;28;20097;-60
2024/02/16 08:30:15;;;;;;;18.67;4.20;;;;;;;;;;5117972;28;20043;-57
2024/02/16 08:32:41;;;;;;;7.85;4.28;;;;;;;;;;5118057;28;20036;-59
2024/02/16 08:35:06;;;;;;;14.88;3.88;;;;;;;;;;5115745;28;20059;-59
2024/02/16 08:37:32;;;;;;;8.40;3.28;;;;;;;;;;5097721;28;20040;-60
2024/02/16 08:39:58;;;;;;;7.68;4.15;;;;;;;;;;5117817;28;20061;-59
2024/02/16 08:42:23;;;;;;;12.23;4.60;;;;;;;;;;5118026;28;20032;-58
2024/02/16 08:44:49;;;;;;;10.65;4.07;;;;;;;;;;5119086;28;20090;-61
2024/02/16 08:47:15;;;;;;;13.38;4.45;;;;;;;;;;5124650;28;20065;-59
2024/02/16 08:49:42;;;;;;;10.48;4.75;;;;;;;;;;5119220;28;20046;-60
2024/02/16 08:52:08;;;;;;;11.73;4.20;;;;;;;;;;5117415;28;20057;-61
2024/02/16 08:54:33;;;;;;;6.80;3.53;;;;;;;;;;5118946;28;20051;-60
2024/02/16 08:56:59;;;;;;;10.73;4.20;;;;;;;;;;5117580;28;20036;-59
2024/02/16 08:59:26;;;;;;;8.65;4.65;;;;;;;;;;5117311;28;20298;-58
2024/02/16 09:01:51;;;;;;;;;;;;;;;;;;5128183;28;20024;-57
2024/02/16 09:04:17;;;;;;;13.63;4.30;;;;;;;;;;5117275;28;19976;-60
2024/02/16 09:06:42;;;;;;;10.47;4.43;;;;;;;;;;5117210;28;20039;-61
2024/02/16 09:09:08;;;;;;;9.45;4.53;;;;;;;;;;5117490;28;20047;-60
2024/02/16 09:11:36;;;;;;;7.43;3.75;;;;;;;;;;5126208;28;20036;-60
2024/02/16 09:14:01;;;;;;;15.17;4.73;;;;;;;;;;5109591;28;20043;-61
2024/02/16 09:16:27;;;;;;;9.27;4.95;;;;;;;;;;5118529;28;20475;-59
2024/02/16 09:18:52;;;;;;;12.40;4.13;;;;;;;;;;5113935;28;20033;-59
2024/02/16 09:21:18;;;;;;;9.50;3.90;;;;;;;;;;5121426;28;20070;-59
2024/02/16 09:23:43;;;;;;;9.17;4.30;;;;;;;;;;5115657;28;20016;-58
2024/02/16 09:26:11;;;;;;;10.57;4.07;;;;;;;;;;5119770;28;20040;-57
2024/02/16 09:28:41;;;;;;;8.97;4.67;;;;;;;;;;5116955;28;20067;-59
2024/02/16 09:31:07;;;;;;;9.90;4.80;;;;;;;;;;5113567;28;20032;-58
2024/02/16 09:33:34;;;;;;;14.43;4.83;;;;;;;;;;5114021;28;20102;-61
2024/02/16 09:36:00;;;;;;;12.05;5.05;;;;;;;;;;5116863;28;20032;-59
2024/02/16 09:38:25;;;;;;;15.07;5.50;;;;;;;;;;5110418;28;20050;-57
2024/02/16 09:40:51;;;;;;;8.13;4.30;;;;;;;;;;5124384;28;20340;-56
2024/02/16 09:43:26;;;;;;;11.53;4.40;;;;;;;;;;5108382;28;20028;-61
2024/02/16 09:45:59;;;;;;;12.93;4.40;;;;;;;;;;5114496;28;20061;-61
2024/02/16 09:48:26;;;;;;;12.03;5.33;;;;;;;;;;5111018;28;20058;-59
2024/02/16 09:50:53;;;;;;;12.63;4.90;;;;;;;;;;5120866;28;20030;-59
2024/02/16 09:53:21;;;;;;;12.53;4.90;;;;;;;;;;5114903;28;20031;-60
2024/02/16 09:55:48;;;;;;;10.33;5.27;;;;;;;;;;5114198;28;20059;-58
2024/02/16 09:58:17;;;;;;;11.20;4.87;;;;;;;;;;5116102;28;20087;-61
2024/02/16 10:00:47;;;;;;;13.17;4.97;;;;;;;;;;5118019;28;20061;-60
2024/02/16 10:03:21;;;;;;;12.87;5.03;;;;;;;;;;5112605;28;20025;-59
2024/02/16 10:05:46;;;;;;;13.63;4.73;;;;;;;;;;5112240;28;20024;-58
2024/02/16 10:08:12;;;;;;;11.35;5.03;;;;;;;;;;5115823;28;20028;-59
2024/02/16 10:10:37;;;;;;;15.63;4.80;;;;;;;;;;5109348;28;20056;-60
2024/02/16 10:13:04;;;;;;;11.30;3.97;;;;;;;;;;5115739;28;20032;-61
2024/02/16 10:15:29;;;;;;;12.65;4.80;;;;;;;;;;5114659;28;20028;-60
2024/02/16 10:18:02;;;;;;;14.85;5.55;;;;;;;;;;5112532;28;20043;-59
2024/02/16 10:20:29;;;;;;;10.83;5.67;;;;;;;;;;5113730;28;20032;-60
2024/02/16 10:23:05;;;;;;;15.77;6.78;;;;;;;;;;5115361;28;20083;-58
2024/02/16 10:25:30;;;;;;;14.80;5.60;;;;;;;;;;5101234;28;20032;-59
2024/02/16 10:27:58;;;;;;;12.87;5.77;;;;;;;;;;5125836;28;20039;-57
2024/02/16 10:30:27;;;;;;;16.60;5.87;;;;;;;;;;5115994;28;20020;-60
2024/02/16 10:32:53;;;;;;;14.63;5.70;;;;;;;;;;5113974;28;20029;-58
2024/02/16 10:35:19;;;;;;;14.43;5.30;;;;;;;;;;5108442;28;20035;-58
2024/02/16 10:37:45;;;;;;;18.25;6.40;;;;;;;;;;5121001;28;20034;-60
2024/02/16 10:40:13;;;;;;;15.03;6.63;;;;;;;;;;5107065;28;20027;-59
2024/02/16 10:42:40;;;;;;;18.43;7.20;;;;;;;;;;5114008;28;20040;-58
2024/02/16 10:45:06;;;;;;;16.35;6.03;;;;;;;;;;5113179;28;20028;-61
2024/02/16 10:47:31;;;;;;;;;;;;;;;;;;5110653;28;20058;-58
2024/02/16 10:49:56;;;;;;;16.57;7.63;;;;;;;;;;5115112;28;19908;-57
2024/02/16 10:52:23;;;;;;;23.35;8.63;;;;;;;;;;5112152;28;20037;-60
2024/02/16 10:54:49;;;;;;;15.10;7.63;;;;;;;;;;5104238;28;20096;-58
2024/02/16 10:57:17;;;;;;;;;;;;;;;;;;5106986;28;20028;-60
2024/02/16 10:59:43;;;;;;;22.42;8.50;;;;;;;;;;5105396;28;19919;-59
2024/02/16 11:02:10;;;;;;;20.30;9.60;;;;;;;;;;5111973;28;20034;-59
2024/02/16 11:04:42;;;;;;;20.08;10.18;;;;;;;;;;5105010;28;20020;-59
2024/02/16 11:07:18;;;;;;;21.33;10.50;;;;;;;;;;5115127;28;20103;-58
2024/02/16 11:09:44;;;;;;;20.10;10.03;;;;;;;;;;5102450;28;20257;-58
2024/02/16 11:12:12;;;;;;;19.35;9.73;;;;;;;;;;5101654;28;20269;-59
2024/02/16 11:14:38;;;;;;;17.73;10.93;;;;;;;;;;5099008;28;20028;-59
2024/02/16 11:17:11;;;;;;;21.02;10.40;;;;;;;;;;5120982;28;20286;-60
2024/02/16 11:19:36;;;;;;;24.33;10.33;;;;;;;;;;5110132;28;20040;-60
2024/02/16 11:22:08;;;;;;;27.70;12.45;;;;;;;;;;5113291;28;20257;-60
2024/02/16 11:24:34;;;;;;;19.10;11.80;;;;;;;;;;5100422;28;20050;-61
2024/02/16 11:27:03;;;;;;;24.17;11.30;;;;;;;;;;5112106;28;20367;-60
2024/02/16 11:29:33;;;;;;;21.00;11.60;;;;;;;;;;5110164;28;20036;-60
2024/02/16 11:31:59;;;;;;;24.27;12.50;;;;;;;;;;5112133;28;20249;-59
2024/02/16 11:34:25;;;;;;;22.80;11.68;;;;;;;;;;5107471;28;20322;-60
2024/02/16 11:36:54;;;;;;;23.03;11.63;;;;;;;;;;5108752;28;20052;-59
2024/02/16 11:39:21;;;;;;;23.57;13.50;;;;;;;;;;5110963;28;20280;-60
2024/02/16 11:41:46;;;;;;;25.23;12.63;;;;;;;;;;5110147;28;20328;-60
2024/02/16 11:44:18;;;;;;;24.10;12.20;;;;;;;;;;5110845;28;20272;-60
2024/02/16 11:46:43;;;;;;;24.80;12.73;;;;;;;;;;5109467;28;20268;-60
2024/02/16 11:49:10;;;;;;;30.93;13.20;;;;;;;;;;5108515;28;20272;-60
2024/02/16 11:51:36;;;;;;;32.00;15.00;;;;;;;;;;5111383;28;20328;-60
2024/02/16 11:54:01;;;;;;;29.53;15.80;;;;;;;;;;5110476;28;20268;-60
2024/02/16 11:56:27;;;;;;;29.60;15.30;;;;;;;;;;5110599;28;20040;-61
2024/02/16 11:58:53;;;;;;;32.38;14.20;;;;;;;;;;5110706;28;20075;-62
2024/02/16 12:01:18;;;;;;;27.70;14.07;;;;;;;;;;5110332;28;20053;-60
2024/02/16 12:03:44;;;;;;;23.50;13.70;;;;;;;;;;5110454;28;20051;-61
2024/02/16 12:06:19;;;;;;;25.20;14.60;;;;;;;;;;5110214;28;20028;-60
2024/02/16 12:08:45;;;;;;;34.27;16.67;;;;;;;;;;5109979;28;20028;-61
2024/02/16 12:11:11;;;;;;;31.90;16.05;;;;;;;;;;5109562;28;20732;-60
2024/02/16 12:13:37;;;;;;;31.67;16.67;;;;;;;;;;5109144;28;20047;-59
2024/02/16 12:16:02;;;;;;;25.60;14.63;;;;;;;;;;5109375;28;20280;-62
2024/02/16 12:18:29;;;;;;;26.42;15.02;;;;;;;;;;5110215;28;20036;-61
2024/02/16 12:20:57;;;;;;;28.90;15.73;;;;;;;;;;5111736;28;20020;-60
2024/02/16 12:23:23;;;;;;;32.10;17.20;;;;;;;;;;5112263;28;20257;-61
2024/02/16 12:25:48;;;;;;;30.03;16.30;;;;;;;;;;5110882;28;20265;-62
2024/02/16 12:28:14;;;;;;;40.50;18.60;;;;;;;;;;5110101;28;20276;-61
2024/02/16 12:30:40;;;;;;;36.45;19.20;;;;;;;;;;5114131;28;20065;-60
2024/02/16 12:33:05;;;;;;;52.53;22.20;;;;;;;;;;5111717;28;20040;-60
2024/02/16 12:35:31;;;;;;;51.37;25.27;;;;;;;;;;5109179;28;20035;-60
2024/02/16 12:37:56;;;;;;;49.78;21.35;;;;;;;;;;5111060;28;20033;-63
2024/02/16 12:40:22;;;;;;;43.27;20.67;;;;;;;;;;5109005;28;20100;-61
2024/02/16 12:42:47;;;;;;;54.33;22.80;;;;;;;;;;5110954;28;20265;-60
2024/02/16 12:45:15;;;;;;;43.70;21.75;;;;;;;;;;5111435;28;20248;-61
2024/02/16 12:47:41;;;;;;;51.13;23.63;;;;;;;;;;5113581;28;20024;-60
2024/02/16 12:50:07;;;;;;;41.45;20.02;;;;;;;;;;5114305;28;20260;-60
2024/02/16 12:52:35;;;;;;;44.23;22.43;;;;;;;;;;5119418;28;20042;-60
2024/02/16 12:55:00;;;;;;;43.03;23.20;;;;;;;;;;5116010;28;20028;-60
2024/02/16 12:57:25;;;;;;;44.70;21.43;;;;;;;;;;5115801;28;20290;-61
2024/02/16 12:59:51;;;;;;;39.43;20.93;;;;;;;;;;5116815;28;20028;-61
2024/02/16 13:02:16;;;;;;;42.37;20.37;;;;;;;;;;5117425;28;20261;-60
2024/02/16 13:04:42;;;;;;;43.23;20.70;;;;;;;;;;5117874;28;20324;-60
2024/02/16 13:07:07;;;;;;;40.72;20.88;;;;;;;;;;5114950;28;20038;-60
2024/02/16 13:09:33;;;;;;;34.83;16.75;;;;;;;;;;5107835;28;20048;-60
2024/02/16 13:11:58;;;;;;;34.90;17.43;;;;;;;;;;5106168;28;20077;-61
2024/02/16 13:14:23;;;;;;;30.93;16.77;;;;;;;;;;5114411;28;20168;-61
2024/02/16 13:16:49;;;;;;;24.13;12.97;;;;;;;;;;5116256;28;20088;-60
2024/02/16 13:19:16;;;;;;;28.05;13.65;;;;;;;;;;5115317;28;20024;-61
2024/02/16 13:21:43;;;;;;;22.10;11.60;;;;;;;;;;5116498;28;20028;-61
2024/02/16 13:24:09;;;;;;;19.53;9.17;;;;;;;;;;5121653;28;20276;-61
2024/02/16 13:26:34;;;;;;;16.98;9.93;;;;;;;;;;5115906;28;20028;-61
2024/02/16 13:29:00;;;;;;;15.30;8.65;;;;;;;;;;5116439;28;20044;-61
2024/02/16 13:31:25;;;;;;;20.83;9.20;;;;;;;;;;5116223;28;20020;-61
2024/02/16 13:33:53;;;;;;;14.48;8.50;;;;;;;;;;5121928;28;20055;-61
2024/02/16 13:36:18;;;;;;;16.80;9.20;;;;;;;;;;5115005;28;20067;-61
2024/02/16 13:38:44;;;;;;;12.85;7.68;;;;;;;;;;5116567;28;20024;-61
2024/02/16 13:41:09;;;;;;;17.47;7.90;;;;;;;;;;5116342;28;20047;-60
2024/02/16 13:43:35;;;;;;;12.90;6.95;;;;;;;;;;5123236;28;20036;-61
2024/02/16 13:46:01;;;;;;;16.00;6.97;;;;;;;;;;5116910;28;20051;-60
2024/02/16 13:48:27;;;;;;;;;;;;;;;;;;5113557;28;20036;-60
2024/02/16 13:50:53;;;;;;;13.17;7.90;;;;;;;;;;5115964;28;19979;-60
2024/02/16 13:53:22;;;;;;;13.23;7.63;;;;;;;;;;5119273;28;20032;-61
2024/02/16 13:55:48;;;;;;;13.10;7.17;;;;;;;;;;5110999;28;20032;-61
2024/02/16 13:58:13;;;;;;;12.18;6.57;;;;;;;;;;5115583;28;20020;-61
2024/02/16 14:00:39;;;;;;;13.02;6.90;;;;;;;;;;5114582;28;20040;-60
2024/02/16 14:03:08;;;;;;;11.00;6.30;;;;;;;;;;5118734;28;20027;-61
2024/02/16 14:05:34;;;;;;;11.37;6.10;;;;;;;;;;5116211;28;20036;-59
2024/02/16 14:07:59;;;;;;;8.50;5.40;;;;;;;;;;5116604;28;20072;-61
2024/02/16 14:10:25;;;;;;;12.48;5.78;;;;;;;;;;5116131;28;20027;-61
2024/02/16 14:12:51;;;;;;;12.38;5.53;;;;;;;;;;5118920;28;20047;-60
2024/02/16 14:15:17;;;;;;;15.90;6.10;;;;;;;;;;5119023;28;20032;-60
2024/02/16 14:17:43;;;;;;;9.47;4.63;;;;;;;;;;5106312;28;20043;-60
2024/02/16 14:20:09;;;;;;;9.25;4.63;;;;;;;;;;5110775;28;20260;-60
2024/02/16 14:22:35;;;;;;;10.35;4.60;;;;;;;;;;5100878;28;20032;-60
2024/02/16 14:25:00;;;;;;;11.93;4.90;;;;;;;;;;5116918;28;20068;-64
2024/02/16 14:27:26;;;;;;;6.97;4.97;;;;;;;;;;5114466;28;20288;-60
2024/02/16 14:29:51;;;;;;;12.53;5.50;;;;;;;;;;5115664;28;20043;-59